METAR Reports From Nearby Airports

 

KLUD - Decatur, Texas, USA
Distance from Wildwood: ESE 5mi, 8km
Updated: Jul 15, 2020 9:15pm
Clear
Clear
 Wind from ESE
Wind: ESE 6 mph , 9 km/h
Temperature: 86°F , 30°C
Heat Index: 89°F , 32°C
Dew Point: 68°F , 20°C
Humidity: 55%
Barometer: 29.91 inHg , 1012.9 hPa
Clouds: Clear
Visibility: 7 miles , 11 km
2020/07/16 02:15 KLUD 160215Z AUTO 12005KT 7SM CLR 30/20 A2991 RMK AO2 T02980203
KXBP - Bridgeport, Texas, USA
Distance from Wildwood: WSW 11mi, 18km
Updated: Jul 15, 2020 9:15pm
Clear
Clear
 Wind from SE
Wind: SE 5 mph , 7 km/h
Temperature: 82°F , 28°C
Heat Index: 85°F , 29°C
Dew Point: 68°F , 20°C
Humidity: 62%
Barometer: 29.91 inHg , 1012.9 hPa
Clouds: Clear
Visibility: 10 miles , 16 km
2020/07/16 02:15 KXBP 160215Z AUTO 13004KT 10SM CLR 28/20 A2991 RMK AO2 T02820203
 
K0F2 - Bowie, Texas, USA
Distance from Wildwood: NNW 24mi, 39km
Updated: Jul 15, 2020 9:15pm
Clear
Clear
 Wind from SE
Wind: SE 3 mph , 6 km/h
Temperature: 82°F , 28°C
Heat Index: 86°F , 30°C
Dew Point: 70°F , 21°C
Humidity: 66%
Barometer: 29.90 inHg , 1012.5 hPa
Clouds: Clear
Visibility: 10 miles , 16 km
2020/07/16 02:15 K0F2 160215Z AUTO 14003KT 10SM CLR 28/21 A2990 RMK AO2 T02750210
KDTO - Denton, Texas, USA
Distance from Wildwood: E 27mi, 44km
Updated: Jul 15, 2020 8:53pm
Clear
Clear
 Wind from SSE
Wind: SSE 5 mph , 7 km/h
Temperature: 88°F , 31°C
Heat Index: 93°F , 34°C
Dew Point: 70°F , 21°C
Humidity: 55%
Barometer: 29.90 inHg , 1012.5 hPa
Clouds: Clear
Visibility: 10 miles , 16 km
2020/07/16 01:53 KDTO 160153Z 16004KT 10SM CLR 31/21 A2990 RMK AO2 SLP114 T03110206
 
KAFW - Ft Worth/Allianc, Texas, USA
Distance from Wildwood: SE 29mi, 46km
Updated: Jul 15, 2020 8:53pm
Few Clouds
Few Clouds
 Wind from SE
Wind: SE 8 mph , 13 km/h
Temperature: 90°F , 32°C
Heat Index: 96°F , 36°C
Dew Point: 70°F , 21°C
Humidity: 52%
Barometer: 29.89 inHg , 1012.2 hPa
Clouds: Few Clouds
Visibility: 10 miles , 16 km
Cloud details: Few Clouds 22000 ft
2020/07/16 01:53 KAFW 160153Z 14007KT 10SM FEW220 32/21 A2989 RMK AO2 SLP106 T03220211
KFTW - Fort Worth, Texas, USA
Distance from Wildwood: SSE 34mi, 55km
Updated: Jul 15, 2020 8:53pm
Clear
Clear
 Wind from SE
Wind: SE 10 mph , 17 km/h
Temperature: 90°F , 32°C
Heat Index: 96°F , 36°C
Dew Point: 70°F , 21°C
Humidity: 52%
Barometer: 29.89 inHg , 1012.2 hPa
Clouds: Clear
Visibility: 10 miles , 16 km
2020/07/16 01:53 KFTW 160153Z 14009KT 10SM CLR 32/21 A2989 RMK AO2 SLP111 T03220206
 
KNFW - Fort Worth Nas, Texas, USA
Distance from Wildwood: SSE 36mi, 58km
Updated: Jul 15, 2020 8:52pm
Few Clouds
Few Clouds
 Wind from SE
Wind: SE 9 mph , 15 km/h
Temperature: 93°F , 34°C
Heat Index: 99°F , 37°C
Dew Point: 70°F , 21°C
Humidity: 47%
Barometer: 29.89 inHg , 1012.2 hPa
Clouds: Few Clouds
Visibility: 10 miles , 16 km
Cloud details: Few Clouds 15000 ft
2020/07/16 01:52 KNFW 160152Z 13008KT 10SM FEW150 34/21 A2989 RMK AO2 SLP107 T03390206 VISNO N $
KGLE - Gainesville, Texas, USA
Distance from Wildwood: NE 38mi, 61km
Updated: Jul 15, 2020 9:15pm
Clear
Clear
 Wind from SSE
Wind: SSE 3 mph , 6 km/h
Temperature: 82°F , 28°C
Heat Index: 86°F , 30°C
Dew Point: 70°F , 21°C
Humidity: 66%
Barometer: 29.93 inHg , 1013.5 hPa
Clouds: Clear
Visibility: 10 miles , 16 km
2020/07/16 02:15 KGLE 160215Z AUTO 15003KT 10SM CLR 28/21 A2993 RMK AO2 T02780211 PWINO
 
KMWL - Mineral Wells, Texas, USA
Distance from Wildwood: SW 41mi, 65km
Updated: Jul 15, 2020 8:53pm
Clear
Clear
 Wind from SE
Wind: SE 7 mph , 11 km/h
Temperature: 88°F , 31°C
Heat Index: 90°F , 32°C
Dew Point: 64°F , 18°C
Humidity: 46%
Barometer: 29.88 inHg , 1011.9 hPa
Clouds: Clear
Visibility: 10 miles , 16 km
2020/07/16 01:53 KMWL 160153Z AUTO 14006KT 10SM CLR 31/18 A2988 RMK AO2 SLP102 T03110178
KDFW - Dallas/Ft Worth, Texas, USA
Distance from Wildwood: ESE 45mi, 73km
Updated: Jul 15, 2020 8:53pm
Few Clouds
Few Clouds
 Wind from SSE
Wind: SSE 12 mph , 19 km/h
Temperature: 90°F , 32°C
Heat Index: 99°F , 37°C
Dew Point: 73°F , 23°C
Humidity: 59%
Barometer: 29.89 inHg , 1012.2 hPa
Clouds: Few Clouds
Visibility: 10 miles , 16 km
Cloud details: Few Clouds 20000 ft
2020/07/16 01:53 KDFW 160153Z 16010KT 10SM FEW200 32/23 A2989 RMK AO2 SLP112 T03220233